Terminal Aerodrome Forecast
Issued by NWS Northern Indiana

Home | Current Version | Previous Version | Text Only | Print | Product List | Glossary On
Versions: 1 2 3 4 5 6 7 8 9 10 11 12 13 14 15 16
000
FTUS43 KIWX 301132
TAFFWA
TAF
KFWA 301132Z 3012/3112 19004KT 5SM BR SCT050 BKN100
     FM301300 23008KT P6SM BKN040
     FM310900 22004KT 5SM BR SCT025
      TEMPO 3110/3112 2SM BR=

USA.gov is the U.S. government's official web portal to all federal, state and local government web resources and services.